Main page


Airports :

Benson, England

RAF Benson

latitude: 51-37N, longitude: 001-05W, elevation: 63 m

Current weather observation

The report was made 54 minutes ago, at 16:50 UTC
Wind 9 kt from the North
Temperature 7°C
Humidity 57%
Pressure 1031 hPa
Visibility 10 km or more
Broken clouds at a height of 4500 ft

METAR: EGUB 201650Z 01009KT 9999 BKN045 07/M01 Q1031 BLU NOSIG

Time: 17:44 (17:44 UTC)


The report was made 52 minutes ago, at 16:52 UTC
Forecast valid from 20 at 18 UTC to 20 at 23 UTC
Wind 5 kt from the North
Visibility 10 km or more
Scattered clouds at a height of 4500 ft
Probability 30% :
from 20 at 21 UTC to 20 at 23 UTC
Scattered clouds at a height of 1800 ft

TAF: EGUB 201652Z 2018/2023 36005KT 9999 SCT045 PROB30 TEMPO 2021/2023 SCT018

Weather observations and forecasts of more than 4000 airports (METAR and TAF reports).

The available stations are represented by yellow and red dots on the map.

Hover mouse over dot to see the name of the station.

Then click to see weather observations and forecasts.

To change the map : click on the green buttons with a black cross to zoom in, on the green button with a dash to zoom out, or on the green arrows for adjacent maps.